createdAt,value
2022-10-05T00:00:17.788Z,8.39
2022-10-05T00:02:19.275Z,8.49
2022-10-05T00:04:21.092Z,8.37
2022-10-05T00:06:22.333Z,8.24
2022-10-05T00:08:24.217Z,8.02
2022-10-05T00:10:25.695Z,7.76
2022-10-05T00:12:27.115Z,7.92
2022-10-05T00:14:29.043Z,7.95
2022-10-05T00:16:30.088Z,7.9
2022-10-05T00:18:31.510Z,8.07
2022-10-05T00:20:32.780Z,8.32
2022-10-05T00:22:34.109Z,8.2
2022-10-05T00:24:35.683Z,8.03
2022-10-05T00:26:37.491Z,7.88
2022-10-05T00:28:39.319Z,7.75
2022-10-05T00:30:40.745Z,7.34
2022-10-05T00:32:42.300Z,7.26
2022-10-05T00:34:43.892Z,7.25
2022-10-05T00:36:45.937Z,7.3
2022-10-05T00:38:47.722Z,7.22
2022-10-05T00:40:49.049Z,7.32
2022-10-05T00:42:50.807Z,7.54
2022-10-05T00:46:54.590Z,7.73
2022-10-05T00:48:55.726Z,7.54
2022-10-05T00:50:57.163Z,7.47
2022-10-05T00:52:58.798Z,7.68
2022-10-05T00:55:00.469Z,7.56
2022-10-05T00:57:02.145Z,7.52
2022-10-05T00:59:03.522Z,7.54
2022-10-05T01:01:05.122Z,7.39
2022-10-05T01:03:06.402Z,7.17
2022-10-05T01:05:08.138Z,7.19
2022-10-05T01:07:09.537Z,7.19
2022-10-05T01:09:11.452Z,7.21
2022-10-05T01:11:13.286Z,7.32
2022-10-05T01:13:15.156Z,7.66
2022-10-05T01:15:16.349Z,7.77
2022-10-05T01:17:17.967Z,7.79
2022-10-05T01:19:19.425Z,7.8
2022-10-05T01:21:20.414Z,7.89
2022-10-05T01:23:21.705Z,7.8
2022-10-05T01:25:23.095Z,7.72
2022-10-05T01:29:25.781Z,7.35
2022-10-05T01:31:27.328Z,7.22
2022-10-05T01:33:28.787Z,7.05
2022-10-05T01:35:30.120Z,6.97
2022-10-05T01:37:31.770Z,6.98
2022-10-05T01:39:33.222Z,6.92
2022-10-05T01:41:34.733Z,6.87
2022-10-05T01:43:36.232Z,7.07
2022-10-05T01:45:37.907Z,7.07
2022-10-05T01:47:39.722Z,7.12
2022-10-05T01:49:41.498Z,7.21
2022-10-05T01:51:43.035Z,7.37
2022-10-05T01:53:44.514Z,7.27
2022-10-05T01:55:45.746Z,7.53
2022-10-05T01:57:47.281Z,7.46
2022-10-05T01:59:48.835Z,7.39
2022-10-05T02:01:50.468Z,7.22
2022-10-05T02:03:51.903Z,7.06
2022-10-05T02:05:53.459Z,7.05
2022-10-05T02:07:55.155Z,7.14
2022-10-05T02:09:56.452Z,7.15
2022-10-05T02:11:58.077Z,7.02
2022-10-05T02:13:59.892Z,6.85
2022-10-05T02:16:01.372Z,6.75
2022-10-05T02:18:03.216Z,6.75
2022-10-05T02:20:48.664Z,6.72
2022-10-05T02:22:50.245Z,6.68
2022-10-05T02:24:51.903Z,6.8
2022-10-05T02:26:52.993Z,6.77
2022-10-05T02:28:54.528Z,6.77
2022-10-05T02:30:55.915Z,6.71
2022-10-05T02:32:57.492Z,6.66
2022-10-05T02:34:59.310Z,6.72
2022-10-05T02:37:00.890Z,6.7
2022-10-05T02:39:02.849Z,7.02
2022-10-05T02:41:04.606Z,7.04
2022-10-05T02:43:06.404Z,6.98
2022-10-05T02:45:07.832Z,6.97
2022-10-05T02:47:08.939Z,7
2022-10-05T02:49:09.950Z,7.06
2022-10-05T02:51:11.337Z,7.23
2022-10-05T02:53:12.710Z,7.27
2022-10-05T02:55:14.506Z,7.25
2022-10-05T02:57:15.578Z,7.16
2022-10-05T02:59:17.550Z,7.06
2022-10-05T03:01:19.528Z,7.08
2022-10-05T03:03:20.942Z,6.97
2022-10-05T03:05:22.835Z,7.01
2022-10-05T03:07:24.845Z,7.06
2022-10-05T03:09:26.083Z,7.15
2022-10-05T03:11:27.235Z,7.06
2022-10-05T03:13:28.724Z,6.94
2022-10-05T03:15:30.024Z,6.82
2022-10-05T03:17:31.677Z,6.62
2022-10-05T03:19:32.812Z,6.2
2022-10-05T03:21:34.330Z,6.05
2022-10-05T03:23:35.707Z,6.03
2022-10-05T03:25:37.687Z,5.86
2022-10-05T03:27:39.254Z,5.83
2022-10-05T03:29:40.593Z,5.89
2022-10-05T03:31:41.771Z,6.01
2022-10-05T03:33:43.185Z,6
2022-10-05T03:35:44.169Z,6.02
2022-10-05T03:37:45.562Z,6.02
2022-10-05T03:39:47.072Z,5.98
2022-10-05T03:41:48.567Z,5.94
2022-10-05T03:43:49.783Z,6.08
2022-10-05T03:47:52.293Z,6.16
2022-10-05T03:49:54.253Z,6.32
2022-10-05T03:51:56.093Z,6.24
2022-10-05T03:53:57.409Z,6.14
2022-10-05T03:55:58.533Z,6.24
2022-10-05T03:58:00.220Z,6.04
2022-10-05T04:00:02.038Z,5.86
2022-10-05T04:02:03.520Z,5.96
2022-10-05T04:04:04.887Z,6.05
2022-10-05T04:06:06.296Z,5.93
2022-10-05T04:08:07.479Z,5.85
2022-10-05T04:10:09.402Z,5.91
2022-10-05T04:12:10.529Z,5.91
2022-10-05T04:14:12.319Z,5.76
2022-10-05T04:16:13.694Z,5.62
2022-10-05T04:18:15.072Z,5.51
2022-10-05T04:20:16.123Z,5.36
2022-10-05T04:22:17.835Z,5.22
2022-10-05T04:24:19.395Z,5.22
2022-10-05T04:26:20.620Z,5.55
2022-10-05T04:28:21.928Z,5.8
2022-10-05T04:30:23.486Z,5.97
2022-10-05T04:32:25.345Z,5.99
2022-10-05T04:34:26.539Z,6.01
2022-10-05T04:36:27.920Z,5.88
2022-10-05T04:38:28.944Z,6.03
2022-10-05T04:40:30.057Z,6.37
2022-10-05T04:42:31.222Z,6.35
2022-10-05T04:44:32.789Z,6.16
2022-10-05T04:46:34.444Z,6.13
2022-10-05T04:48:36.328Z,6
2022-10-05T04:50:37.452Z,5.81
2022-10-05T04:52:39.228Z,5.69
2022-10-05T04:54:41.184Z,5.56
2022-10-05T04:56:42.459Z,5.42
2022-10-05T04:58:43.472Z,5.29
2022-10-05T05:00:45.270Z,5.14
2022-10-05T05:02:46.397Z,4.97
2022-10-05T05:04:51.621Z,5
2022-10-05T05:06:49.445Z,5.07
2022-10-05T05:08:50.494Z,5.18
2022-10-05T05:10:51.492Z,5.19
2022-10-05T05:12:52.569Z,5.17
2022-10-05T05:14:53.851Z,5.11
2022-10-05T05:16:55.163Z,5.09
2022-10-05T05:18:56.251Z,5.08
2022-10-05T05:20:57.326Z,5.25
2022-10-05T05:22:58.676Z,5.39
2022-10-05T05:24:59.799Z,5.32
2022-10-05T05:27:01.157Z,5.23
2022-10-05T05:29:02.782Z,5.29
2022-10-05T05:31:04.685Z,5.6
2022-10-05T05:33:05.965Z,5.61
2022-10-05T05:35:07.820Z,5.57
2022-10-05T05:37:09.727Z,5.18
2022-10-05T05:39:11.595Z,5.1
2022-10-05T05:41:12.943Z,5.04
2022-10-05T05:43:14.167Z,5.21
2022-10-05T05:45:15.624Z,5.53
2022-10-05T05:47:16.775Z,5.51
2022-10-05T05:49:18.441Z,5.38
2022-10-05T05:51:20.309Z,5.29
2022-10-05T05:53:21.937Z,5.36
2022-10-05T05:55:27.725Z,5.51
2022-10-05T05:57:25.752Z,5.51
2022-10-05T05:59:27.752Z,5.11
2022-10-05T06:01:33.469Z,5.06
2022-10-05T06:03:31.625Z,5.12
2022-10-05T06:05:33.604Z,5.28
2022-10-05T06:07:34.956Z,5.42
2022-10-05T06:09:36.879Z,5.71
2022-10-05T06:11:38.439Z,5.97
2022-10-05T06:13:40.177Z,6.23
2022-10-05T06:15:41.385Z,6.45
2022-10-05T06:17:43.035Z,6.85
2022-10-05T06:19:44.336Z,7.22
2022-10-05T06:21:45.736Z,7.19
2022-10-05T06:23:47.003Z,7.02
2022-10-05T06:25:48.757Z,6.8
2022-10-05T06:27:50.033Z,6.23
2022-10-05T06:29:51.893Z,6.12
2022-10-05T06:31:56.531Z,6.38
2022-10-05T06:33:54.863Z,6.58
2022-10-05T06:35:56.488Z,6.68
2022-10-05T06:37:57.501Z,6.55
2022-10-05T06:40:01.172Z,6.32
2022-10-05T06:42:01.037Z,6.22
2022-10-05T06:44:02.285Z,6.49
2022-10-05T06:46:03.821Z,6.82
2022-10-05T06:48:05.817Z,6.65
2022-10-05T06:50:07.474Z,6.3
2022-10-05T06:52:09.006Z,6.41
2022-10-05T06:54:10.447Z,6.78
2022-10-05T06:56:11.876Z,6.95
2022-10-05T06:58:12.953Z,7.27
2022-10-05T07:00:14.560Z,7.33
2022-10-05T07:02:16.504Z,7.61
2022-10-05T07:04:17.969Z,7.8
2022-10-05T07:06:19.710Z,8.4
2022-10-05T07:08:20.727Z,8.08
2022-10-05T07:10:21.666Z,8.02
2022-10-05T07:12:22.605Z,8.38
2022-10-05T07:14:24.815Z,9.01
2022-10-05T07:16:25.916Z,9.73
2022-10-05T07:18:27.301Z,9.51
2022-10-05T07:20:28.546Z,10.11
2022-10-05T07:22:31.727Z,10.27
2022-10-05T07:24:31.731Z,9.82
2022-10-05T07:26:33.486Z,9.99
2022-10-05T07:28:35.547Z,9.94
2022-10-05T07:30:36.945Z,10.45
2022-10-05T07:32:38.919Z,10.82
2022-10-05T07:34:40.405Z,10.87
2022-10-05T07:36:42.190Z,10.78
2022-10-05T07:38:43.571Z,11.38
2022-10-05T07:40:45.209Z,11.8
2022-10-05T07:42:50.860Z,12.13
2022-10-05T07:44:48.724Z,12.19
2022-10-05T07:46:50.250Z,12.34
2022-10-05T07:48:51.447Z,12.38
2022-10-05T07:50:54.153Z,12.62
2022-10-05T07:52:55.497Z,12.8
2022-10-05T07:54:56.805Z,12.89
2022-10-05T07:56:58.629Z,12.68
2022-10-05T07:58:59.593Z,13.27
2022-10-05T08:01:00.813Z,13.6
2022-10-05T08:03:01.867Z,14.12
2022-10-05T08:05:03.215Z,14.35
2022-10-05T08:07:04.146Z,14.23
2022-10-05T08:09:05.860Z,14.17
2022-10-05T08:11:06.908Z,14.38
2022-10-05T08:13:08.106Z,14.5
2022-10-05T08:15:09.159Z,14.16
2022-10-05T08:17:10.210Z,14.4
2022-10-05T08:19:11.617Z,14.37
2022-10-05T08:21:12.476Z,14.5
2022-10-05T08:23:14.280Z,14.86
2022-10-05T08:25:15.932Z,15.45
2022-10-05T08:27:17.331Z,15.87
2022-10-05T08:29:18.292Z,15.87
2022-10-05T08:31:19.603Z,15.89
2022-10-05T08:33:20.929Z,15.54
2022-10-05T08:35:22.949Z,15.47
2022-10-05T08:37:24.212Z,16.05
2022-10-05T08:39:25.604Z,16.56
2022-10-05T08:41:27.031Z,16.52
2022-10-05T08:43:31.718Z,16.56
2022-10-05T08:45:29.422Z,16.71
2022-10-05T08:47:30.612Z,16.49
2022-10-05T08:49:35.121Z,16.8
2022-10-05T08:51:33.180Z,16.83
2022-10-05T08:53:34.264Z,16.64
2022-10-05T08:55:36.028Z,15.37
2022-10-05T08:57:37.493Z,15.59
2022-10-05T08:59:38.609Z,15.77
2022-10-05T09:01:41.058Z,15.37
2022-10-05T09:03:42.389Z,15.81
2022-10-05T09:04:52.286Z,16.26
2022-10-05T09:06:53.708Z,16.05
2022-10-05T09:08:55.007Z,16.6
2022-10-05T09:10:55.875Z,16.99
2022-10-05T09:12:56.866Z,16.88
2022-10-05T09:15:20.768Z,16.8
2022-10-05T09:16:58.943Z,17.05
2022-10-05T09:18:59.884Z,16.79
2022-10-05T09:21:01.315Z,16.56
2022-10-05T09:23:02.897Z,16.63
2022-10-05T09:25:04.023Z,17.06
2022-10-05T09:27:05.248Z,16.82
2022-10-05T09:29:06.470Z,16.78
2022-10-05T09:31:08.109Z,17.39
2022-10-05T09:33:09.659Z,17.7
2022-10-05T09:35:10.839Z,17.38
2022-10-05T09:37:11.727Z,17.32
2022-10-05T09:39:12.724Z,17.14
2022-10-05T09:41:14.321Z,16.95
2022-10-05T09:43:15.729Z,17.15
2022-10-05T09:45:21.124Z,17.53
2022-10-05T09:47:18.728Z,17.38
2022-10-05T09:49:20.427Z,17.57
2022-10-05T09:51:22.050Z,17.8
2022-10-05T09:53:22.998Z,18.46
2022-10-05T09:55:24.349Z,18.47
2022-10-05T09:57:25.370Z,18.83
2022-10-05T09:59:27.126Z,18.3
2022-10-05T10:01:33.397Z,18.77
2022-10-05T10:03:30.309Z,18.56
2022-10-05T10:05:31.367Z,18.67
2022-10-05T10:07:32.364Z,18.56
2022-10-05T10:09:36.574Z,18.77
2022-10-05T10:11:35.111Z,18.58
2022-10-05T10:13:35.927Z,18.18
2022-10-05T10:15:37.099Z,18.21
2022-10-05T10:17:38.265Z,18.21
2022-10-05T10:19:39.642Z,17.76
2022-10-05T10:21:41.150Z,17.97
2022-10-05T10:23:42.726Z,18.25
2022-10-05T10:25:44.226Z,18.27
2022-10-05T10:27:48.044Z,18.2
2022-10-05T10:29:46.702Z,18.66
2022-10-05T10:31:47.968Z,18.55
2022-10-05T10:33:49.211Z,18.29
2022-10-05T10:35:50.270Z,18.91
2022-10-05T10:37:51.999Z,18.83
2022-10-05T10:39:53.003Z,18.87
2022-10-05T10:41:54.406Z,19.07
2022-10-05T10:43:56.174Z,19.13
2022-10-05T10:45:57.431Z,19.41
2022-10-05T10:47:58.180Z,18.66
2022-10-05T10:49:59.063Z,19.2
2022-10-05T10:52:00.230Z,19.01
2022-10-05T10:54:02.024Z,19.37
2022-10-05T10:56:03.415Z,19.18
2022-10-05T10:58:05.098Z,19.28
2022-10-05T11:00:05.922Z,19.41
2022-10-05T11:02:07.126Z,19.18
2022-10-05T11:04:08.597Z,19.31
2022-10-05T11:06:09.837Z,19.32
2022-10-05T11:08:19.379Z,18.82
2022-10-05T11:10:12.290Z,19.09
2022-10-05T11:12:13.191Z,18.99
2022-10-05T11:14:14.033Z,18.88
2022-10-05T11:16:17.251Z,19.08
2022-10-05T11:18:17.476Z,19.45
2022-10-05T11:20:18.950Z,19.77
2022-10-05T11:22:19.810Z,19.63
2022-10-05T11:24:21.118Z,19.77
2022-10-05T11:26:22.434Z,19.58
2022-10-05T11:28:24.327Z,19.79
2022-10-05T11:30:25.723Z,19.7
2022-10-05T11:32:27.437Z,20.28
2022-10-05T11:34:28.359Z,20.08
2022-10-05T11:36:29.232Z,20.05
2022-10-05T11:38:30.226Z,20.59
2022-10-05T11:40:31.376Z,20.85
2022-10-05T11:42:32.759Z,20.72
2022-10-05T11:44:34.061Z,20.66
2022-10-05T11:46:35.941Z,20.43
2022-10-05T11:48:37.173Z,20.4
2022-10-05T11:50:38.948Z,19.91
2022-10-05T11:52:40.252Z,20.43
2022-10-05T11:54:58.957Z,20.35
2022-10-05T11:56:42.873Z,20.42
2022-10-05T11:58:43.823Z,20.56
2022-10-05T12:00:45.130Z,20.65
2022-10-05T12:02:46.515Z,20.68
2022-10-05T12:04:47.901Z,20.84
2022-10-05T12:06:49.289Z,20.79
2022-10-05T12:08:50.874Z,20.4
2022-10-05T12:10:51.921Z,20.38
2022-10-05T12:12:53.294Z,20.77
2022-10-05T12:14:54.551Z,20.53
2022-10-05T12:16:55.531Z,20.75
2022-10-05T12:18:56.443Z,20.77
2022-10-05T12:20:57.503Z,20.68
2022-10-05T12:22:59.100Z,20.6
2022-10-05T12:25:00.244Z,20.77
2022-10-05T12:27:01.293Z,20.65
2022-10-05T12:29:02.766Z,20.85
2022-10-05T12:31:03.648Z,20.68
2022-10-05T12:33:04.970Z,20.78
2022-10-05T12:35:06.824Z,20.56
2022-10-05T12:37:08.153Z,20.94
2022-10-05T12:39:10.486Z,21.02
2022-10-05T12:41:11.593Z,20.74
2022-10-05T12:43:12.806Z,20.86
2022-10-05T12:45:14.873Z,20.63
2022-10-05T12:47:16.592Z,20.55
2022-10-05T12:49:17.470Z,20.94
2022-10-05T12:51:18.449Z,21.07
2022-10-05T12:53:20.113Z,21.06
2022-10-05T12:55:21.337Z,20.86
2022-10-05T12:57:22.702Z,20.81
2022-10-05T12:59:23.754Z,20.87
2022-10-05T13:01:24.877Z,21.06
2022-10-05T13:03:25.979Z,21.06
2022-10-05T13:05:26.930Z,21.16
2022-10-05T13:07:28.649Z,21.24
2022-10-05T13:09:29.704Z,21.12
2022-10-05T13:11:31.359Z,21.28
2022-10-05T13:13:32.542Z,21.32
2022-10-05T13:15:34.146Z,21.25
2022-10-05T13:17:35.159Z,20.99
2022-10-05T13:19:36.929Z,21.35
2022-10-05T13:21:38.642Z,21.71
2022-10-05T13:23:40.141Z,21.53
2022-10-05T13:25:41.707Z,21.62
2022-10-05T13:27:43.248Z,21.61
2022-10-05T13:29:44.685Z,21.58
2022-10-05T13:31:45.864Z,21.69
2022-10-05T13:33:46.785Z,21.83
2022-10-05T13:35:47.903Z,22.1
2022-10-05T13:37:48.787Z,22.66
2022-10-05T13:39:49.794Z,22.42
2022-10-05T13:41:51.000Z,22.21
2022-10-05T13:43:51.994Z,22.31
2022-10-05T13:45:54.284Z,22.19
2022-10-05T13:47:53.992Z,21.95
2022-10-05T13:49:55.362Z,22.03
2022-10-05T13:51:56.273Z,21.83
2022-10-05T13:53:56.978Z,22.09
2022-10-05T13:55:57.948Z,22.17
2022-10-05T13:57:59.528Z,21.8
2022-10-05T14:00:01.170Z,21.87
2022-10-05T14:02:02.409Z,22.12
2022-10-05T14:04:03.307Z,22.02
2022-10-05T14:06:04.785Z,22.09
2022-10-05T14:08:06.092Z,22.12
2022-10-05T14:10:07.263Z,22.03
2022-10-05T14:12:08.206Z,22.29
2022-10-05T14:14:09.902Z,22.08
2022-10-05T14:16:11.231Z,22.45
2022-10-05T14:18:12.509Z,22.78
2022-10-05T14:20:13.559Z,22.91
2022-10-05T14:22:15.147Z,22.92
2022-10-05T14:24:25.798Z,23.05
2022-10-05T14:26:17.007Z,23.14
2022-10-05T14:28:18.621Z,23.27
2022-10-05T14:30:19.794Z,23.3
2022-10-05T14:32:21.542Z,23.23
2022-10-05T14:34:23.296Z,23.05
2022-10-05T14:36:25.746Z,22.91
2022-10-05T14:38:25.461Z,23.42
2022-10-05T14:40:27.196Z,23.28
2022-10-05T14:42:28.081Z,23.85
2022-10-05T14:44:29.749Z,23.6
2022-10-05T14:46:31.232Z,23.7
2022-10-05T14:48:31.935Z,23.86
2022-10-05T14:50:32.914Z,23.67
2022-10-05T14:52:34.308Z,23.44
2022-10-05T14:54:35.696Z,23.8
2022-10-05T14:56:37.062Z,24.06
2022-10-05T14:58:38.248Z,24.3
2022-10-05T15:00:39.026Z,23.52
2022-10-05T15:02:40.695Z,23.44
2022-10-05T15:04:41.583Z,22.97
2022-10-05T15:06:43.625Z,23.05
2022-10-05T15:08:44.430Z,23.11
2022-10-05T15:10:45.850Z,23.08
2022-10-05T15:12:47.116Z,22.97
2022-10-05T15:14:48.204Z,23.05
2022-10-05T15:16:49.889Z,22.87
2022-10-05T15:18:50.528Z,23.01
2022-10-05T15:20:52.183Z,22.81
2022-10-05T15:22:53.678Z,22.79
2022-10-05T15:24:55.115Z,22.75
2022-10-05T15:26:56.367Z,22.87
2022-10-05T15:28:57.283Z,23.13
2022-10-05T15:30:59.056Z,23.59
2022-10-05T15:33:00.338Z,23.03
2022-10-05T15:35:01.478Z,23.55
2022-10-05T15:37:02.318Z,23.77
2022-10-05T15:39:03.962Z,24.3
2022-10-05T15:41:05.617Z,23.33
2022-10-05T15:43:07.085Z,23.24
2022-10-05T15:45:08.475Z,23.36
2022-10-05T15:47:10.110Z,23.57
2022-10-05T15:49:11.743Z,23.15
2022-10-05T15:49:55.415Z,23.08
2022-10-05T15:51:56.499Z,23.32
2022-10-05T15:53:57.429Z,23.49
2022-10-05T15:55:59.101Z,23.05
2022-10-05T15:57:59.874Z,22.87
2022-10-05T16:00:01.702Z,22.57
2022-10-05T16:02:03.213Z,22.23
2022-10-05T16:04:04.024Z,22.22
2022-10-05T16:06:04.957Z,22.45
2022-10-05T16:08:05.922Z,22.26
2022-10-05T16:10:06.766Z,22.1
2022-10-05T16:12:08.219Z,21.95
2022-10-05T16:14:09.795Z,21.78
2022-10-05T16:16:11.343Z,21.75
2022-10-05T16:18:12.580Z,21.83
2022-10-05T16:20:13.976Z,22.01
2022-10-05T16:22:15.305Z,21.82
2022-10-05T16:24:16.959Z,21.82
2022-10-05T16:26:18.026Z,22.05
2022-10-05T16:28:19.702Z,22.19
2022-10-05T16:30:20.805Z,21.92
2022-10-05T16:32:21.988Z,21.6
2022-10-05T16:34:23.000Z,21.29
2022-10-05T16:36:24.094Z,21.01
2022-10-05T16:38:25.880Z,20.82
2022-10-05T16:40:27.093Z,20.59
2022-10-05T16:42:28.313Z,20.32
2022-10-05T16:44:29.378Z,19.7
2022-10-05T16:46:30.357Z,19.27
2022-10-05T16:48:31.753Z,19.07
2022-10-05T16:50:33.309Z,19.03
2022-10-05T16:52:34.530Z,18.94
2022-10-05T16:54:35.924Z,18.86
2022-10-05T16:56:37.338Z,19.11
2022-10-05T16:58:38.830Z,19.1
2022-10-05T17:00:39.924Z,18.99
2022-10-05T17:02:41.194Z,19.06
2022-10-05T17:04:42.328Z,19.06
2022-10-05T17:06:43.496Z,19.26
2022-10-05T17:08:44.767Z,18.73
2022-10-05T17:10:46.455Z,18.34
2022-10-05T17:12:47.452Z,18.04
2022-10-05T17:14:49.310Z,18.1
2022-10-05T17:16:51.109Z,18.03
2022-10-05T17:18:52.834Z,17.82
2022-10-05T17:20:54.538Z,17.81
2022-10-05T17:22:55.775Z,18.07
2022-10-05T17:24:57.429Z,18.07
2022-10-05T17:26:58.657Z,18.1
2022-10-05T17:29:00.163Z,17.82
2022-10-05T17:31:01.786Z,17.57
2022-10-05T17:33:02.819Z,17.71
2022-10-05T17:35:04.258Z,17.5
2022-10-05T17:37:05.599Z,17.06
2022-10-05T17:39:06.492Z,16.95
2022-10-05T17:41:08.014Z,16.82
2022-10-05T17:43:09.514Z,16.81
2022-10-05T17:45:11.302Z,16.91
2022-10-05T17:47:12.480Z,17.09
2022-10-05T17:49:14.126Z,17.06
2022-10-05T17:51:15.836Z,16.85
2022-10-05T17:53:16.859Z,16.79
2022-10-05T17:55:18.525Z,16.8
2022-10-05T17:57:19.959Z,16.99
2022-10-05T17:59:21.734Z,17.06
2022-10-05T18:01:22.938Z,16.98
2022-10-05T18:03:24.480Z,16.9
2022-10-05T18:05:26.209Z,16.67
2022-10-05T18:07:27.502Z,16.3
2022-10-05T18:09:29.178Z,15.93
2022-10-05T18:11:30.659Z,15.69
2022-10-05T18:13:31.874Z,15.63
2022-10-05T18:15:32.835Z,15.56
2022-10-05T18:17:34.588Z,15.6
2022-10-05T18:19:35.909Z,15.63
2022-10-05T18:21:37.350Z,15.44
2022-10-05T18:23:38.268Z,15.41
2022-10-05T18:25:39.956Z,15.55
2022-10-05T18:27:41.410Z,15.65
2022-10-05T18:29:42.426Z,15.66
2022-10-05T18:31:43.917Z,15.63
2022-10-05T18:33:44.854Z,15.8
2022-10-05T18:35:46.030Z,15.44
2022-10-05T18:37:47.912Z,15.42
2022-10-05T18:39:49.690Z,15.72
2022-10-05T18:41:51.144Z,15.75
2022-10-05T18:43:52.438Z,15.76
2022-10-05T18:45:53.772Z,15.68
2022-10-05T18:47:55.249Z,15.81
2022-10-05T18:49:56.316Z,15.99
2022-10-05T18:51:57.785Z,16
2022-10-05T18:53:59.470Z,16.06
2022-10-05T18:56:00.689Z,16.09
2022-10-05T18:58:01.903Z,16.03
2022-10-05T19:00:03.224Z,16.05
2022-10-05T19:02:05.029Z,15.88
2022-10-05T19:04:06.373Z,15.8
2022-10-05T19:06:12.165Z,15.76
2022-10-05T19:08:09.410Z,15.75
2022-10-05T19:10:11.233Z,15.74
2022-10-05T19:12:12.163Z,15.56
2022-10-05T19:14:13.917Z,15.43
2022-10-05T19:16:15.811Z,15.3
2022-10-05T19:18:17.352Z,15.18
2022-10-05T19:20:18.967Z,15.1
2022-10-05T19:22:20.820Z,14.97
2022-10-05T19:24:22.661Z,14.83
2022-10-05T19:26:23.604Z,14.84
2022-10-05T19:28:25.558Z,14.98
2022-10-05T19:30:26.893Z,15.03
2022-10-05T19:32:28.114Z,14.85
2022-10-05T19:34:29.202Z,14.76
2022-10-05T19:38:32.706Z,14.88
2022-10-05T19:40:34.335Z,14.85
2022-10-05T19:42:36.098Z,14.69
2022-10-05T19:44:37.518Z,14.57
2022-10-05T19:46:38.944Z,14.71
2022-10-05T19:48:40.267Z,14.38
2022-10-05T19:50:41.297Z,14.26
2022-10-05T19:52:45.186Z,14.29
2022-10-05T19:54:43.508Z,14.27
2022-10-05T19:56:44.750Z,14.16
2022-10-05T19:58:46.098Z,14.13
2022-10-05T20:00:47.444Z,14.29
2022-10-05T20:02:48.960Z,14.24
2022-10-05T20:04:50.738Z,14.21
2022-10-05T20:06:52.633Z,14.16
2022-10-05T20:08:54.428Z,14.29
2022-10-05T20:10:55.505Z,14.56
2022-10-05T20:12:57.186Z,14.48
2022-10-05T20:14:59.349Z,14.72
2022-10-05T20:16:59.863Z,14.7
2022-10-05T20:19:01.587Z,14.55
2022-10-05T20:21:03.079Z,14.38
2022-10-05T20:23:04.871Z,14.31
2022-10-05T20:25:06.192Z,14.17
2022-10-05T20:27:09.585Z,14.08
2022-10-05T20:29:09.501Z,14.14
2022-10-05T20:31:10.646Z,14.07
2022-10-05T20:33:12.005Z,14.07
2022-10-05T20:37:14.720Z,14.1
2022-10-05T20:39:15.982Z,14.06
2022-10-05T20:41:17.474Z,13.96
2022-10-05T20:43:19.366Z,13.84
2022-10-05T20:45:21.273Z,14.21
2022-10-05T20:47:22.953Z,14.35
2022-10-05T20:49:23.953Z,14.45
2022-10-05T20:51:25.553Z,14.58
2022-10-05T20:53:26.989Z,14.51
2022-10-05T20:55:28.052Z,14.44
2022-10-05T20:57:29.510Z,14.27
2022-10-05T20:59:30.678Z,14.07
2022-10-05T21:01:32.116Z,13.95
2022-10-05T21:03:32.856Z,14.34
2022-10-05T21:05:34.597Z,14.81
2022-10-05T21:07:36.423Z,14.97
2022-10-05T21:09:37.526Z,14.94
2022-10-05T21:11:39.316Z,14.98
2022-10-05T21:13:41.172Z,14.85
2022-10-05T21:15:42.708Z,15.24
2022-10-05T21:17:44.353Z,15.34
2022-10-05T21:19:46.119Z,15.55
2022-10-05T21:21:47.357Z,15.66
2022-10-05T21:23:48.452Z,15.69
2022-10-05T21:25:50.008Z,15.57
2022-10-05T21:27:51.269Z,15.39
2022-10-05T21:29:52.415Z,15.27
2022-10-05T21:31:54.198Z,15.21
2022-10-05T21:33:55.172Z,15.17
2022-10-05T21:35:56.323Z,14.89
2022-10-05T21:37:57.674Z,15.16
2022-10-05T21:39:59.283Z,15.16
2022-10-05T21:42:01.002Z,14.97
2022-10-05T21:44:02.295Z,14.81
2022-10-05T21:46:03.993Z,14.73
2022-10-05T21:48:05.078Z,14.56
2022-10-05T21:50:06.817Z,14.43
2022-10-05T21:52:08.672Z,14.45
2022-10-05T21:54:10.334Z,14.4
2022-10-05T21:56:11.608Z,14.28
2022-10-05T21:58:12.643Z,14.09
2022-10-05T22:02:15.404Z,14.64
2022-10-05T22:04:16.645Z,14.62
2022-10-05T22:06:18.067Z,14.49
2022-10-05T22:08:19.672Z,14.46
2022-10-05T22:10:21.187Z,14.35
2022-10-05T22:12:22.595Z,14.18
2022-10-05T22:14:23.882Z,13.93
2022-10-05T22:16:25.343Z,14.13
2022-10-05T22:18:27.244Z,14.34
2022-10-05T22:20:28.602Z,14.39
2022-10-05T22:22:29.520Z,14.36
2022-10-05T22:24:30.432Z,14.48
2022-10-05T22:26:31.634Z,14.82
2022-10-05T22:28:33.470Z,14.79
2022-10-05T22:30:34.853Z,14.8
2022-10-05T22:32:36.671Z,14.74
2022-10-05T22:34:37.625Z,14.8
2022-10-05T22:37:22.921Z,14.66
2022-10-05T22:39:23.892Z,14.73
2022-10-05T22:41:25.522Z,14.75
2022-10-05T22:43:27.226Z,14.71
2022-10-05T22:45:32.376Z,15.01
2022-10-05T22:47:29.926Z,14.97
2022-10-05T22:49:31.155Z,14.85
2022-10-05T22:51:32.100Z,14.69
2022-10-05T22:53:33.697Z,14.65
2022-10-05T22:55:34.952Z,14.18
2022-10-05T22:57:36.409Z,14.11
2022-10-05T22:59:37.496Z,14.08
2022-10-05T23:01:38.809Z,14.23
2022-10-05T23:03:40.258Z,14.19
2022-10-05T23:05:41.896Z,14.2
2022-10-05T23:07:43.537Z,14.42
2022-10-05T23:09:44.977Z,14.45
2022-10-05T23:11:46.606Z,14.36
2022-10-05T23:13:48.082Z,14.39
2022-10-05T23:15:49.321Z,14.42
2022-10-05T23:17:50.257Z,14.54
2022-10-05T23:19:51.775Z,14.62
2022-10-05T23:21:53.517Z,14.75
2022-10-05T23:23:54.803Z,14.74
2022-10-05T23:25:55.668Z,14.78
2022-10-05T23:27:57.346Z,14.81
2022-10-05T23:29:58.405Z,14.81
2022-10-05T23:31:59.681Z,14.82
2022-10-05T23:34:01.486Z,14.81
2022-10-05T23:36:03.305Z,14.84
2022-10-05T23:38:05.185Z,14.83
2022-10-05T23:40:06.449Z,14.73
2022-10-05T23:42:08.212Z,14.42
2022-10-05T23:44:09.369Z,14.31
2022-10-05T23:46:10.521Z,14.48
2022-10-05T23:48:12.228Z,14.45
2022-10-05T23:50:13.897Z,14.25
2022-10-05T23:52:15.123Z,13.89
2022-10-05T23:54:16.503Z,13.68
2022-10-05T23:56:17.878Z,13.51
2022-10-05T23:58:19.451Z,13.56
